createdAt,value
2023-04-29T00:00:11.298Z,58.05
2023-04-29T00:02:59.280Z,58.49
2023-04-29T00:05:27.559Z,58.72
2023-04-29T00:07:55.407Z,58.62
2023-04-29T00:10:23.179Z,58.74
2023-04-29T00:12:51.623Z,59.31
2023-04-29T00:15:19.705Z,59.05
2023-04-29T00:17:48.270Z,59.15
2023-04-29T00:20:16.282Z,59.37
2023-04-29T00:22:44.144Z,59.44
2023-04-29T00:25:12.338Z,59.61
2023-04-29T00:27:40.913Z,59.68
2023-04-29T00:30:09.387Z,59.79
2023-04-29T00:32:37.479Z,60.08
2023-04-29T00:35:05.965Z,60.48
2023-04-29T00:37:35.240Z,60.87
2023-04-29T00:40:04.351Z,60.86
2023-04-29T00:42:34.000Z,61.26
2023-04-29T00:45:02.791Z,61.34
2023-04-29T00:47:30.600Z,61.43
2023-04-29T00:49:58.401Z,61.34
2023-04-29T00:52:27.412Z,61.99
2023-04-29T00:54:55.306Z,62.02
2023-04-29T00:57:23.180Z,62.18
2023-04-29T00:59:51.434Z,63.60
2023-04-29T01:02:19.513Z,61.65
2023-04-29T01:04:47.933Z,57.08
2023-04-29T01:07:18.186Z,56.30
2023-04-29T01:10:14.217Z,57.24
2023-04-29T01:12:47.512Z,58.21
2023-04-29T01:15:31.092Z,59.05
2023-04-29T01:18:05.704Z,59.57
2023-04-29T01:20:37.897Z,59.92
2023-04-29T01:23:05.938Z,60.31
2023-04-29T01:25:34.113Z,60.79
2023-04-29T01:28:14.966Z,61.19
2023-04-29T01:31:04.157Z,61.29
2023-04-29T01:34:00.098Z,61.57
2023-04-29T01:37:01.478Z,62.66
2023-04-29T01:39:50.641Z,61.80
2023-04-29T01:42:23.904Z,56.73
2023-04-29T01:44:53.429Z,56.45
2023-04-29T01:47:21.683Z,57.36
2023-04-29T01:49:49.949Z,58.62
2023-04-29T01:52:18.039Z,59.07
2023-04-29T01:54:46.157Z,59.45
2023-04-29T01:57:13.964Z,59.72
2023-04-29T01:59:42.359Z,60.14
2023-04-29T02:02:10.399Z,60.75
2023-04-29T02:04:38.501Z,61.37
2023-04-29T02:07:06.380Z,61.50
2023-04-29T02:09:34.114Z,62.10
2023-04-29T02:12:04.178Z,62.83
2023-04-29T02:14:32.163Z,63.39
2023-04-29T02:17:00.515Z,59.87
2023-04-29T02:19:28.620Z,54.97
2023-04-29T02:21:56.625Z,55.11
2023-04-29T02:24:24.417Z,56.63
2023-04-29T02:26:53.009Z,57.82
2023-04-29T02:29:20.874Z,58.64
2023-04-29T02:31:48.798Z,59.56
2023-04-29T02:34:16.632Z,59.88
2023-04-29T02:36:44.595Z,60.43
2023-04-29T02:39:12.571Z,60.84
2023-04-29T02:41:40.439Z,61.07
2023-04-29T02:44:08.393Z,61.59
2023-04-29T02:46:36.995Z,62.91
2023-04-29T02:49:05.174Z,61.95
2023-04-29T02:51:33.505Z,57.22
2023-04-29T02:54:01.327Z,56.94
2023-04-29T02:56:29.763Z,58.11
2023-04-29T02:58:57.554Z,59.46
2023-04-29T03:01:25.470Z,60.45
2023-04-29T03:03:54.219Z,60.67
2023-04-29T03:06:22.181Z,61.12
2023-04-29T03:08:50.600Z,61.89
2023-04-29T03:11:18.413Z,62.88
2023-04-29T03:13:46.409Z,60.17
2023-04-29T03:16:15.349Z,54.89
2023-04-29T03:18:44.181Z,55.45
2023-04-29T03:21:12.066Z,57.08
2023-04-29T03:23:40.231Z,58.31
2023-04-29T03:26:08.164Z,59.16
2023-04-29T03:28:36.101Z,59.67
2023-04-29T03:31:04.017Z,59.72
2023-04-29T03:33:31.903Z,60.37
2023-04-29T03:35:59.862Z,61.27
2023-04-29T03:38:28.012Z,61.32
2023-04-29T03:40:55.950Z,61.84
2023-04-29T03:43:23.760Z,62.95
2023-04-29T03:45:51.647Z,61.09
2023-04-29T03:48:22.189Z,56.37
2023-04-29T03:50:50.283Z,56.03
2023-04-29T03:53:19.125Z,57.41
2023-04-29T03:55:47.025Z,58.38
2023-04-29T03:58:14.818Z,59.20
2023-04-29T04:00:42.981Z,60.04
2023-04-29T04:03:10.863Z,60.69
2023-04-29T04:05:38.750Z,61.27
2023-04-29T04:08:06.754Z,61.82
2023-04-29T04:10:34.548Z,63.20
2023-04-29T04:13:02.320Z,61.55
2023-04-29T04:15:30.072Z,56.56
2023-04-29T04:17:58.025Z,56.62
2023-04-29T04:20:25.945Z,58.36
2023-04-29T04:22:54.905Z,59.36
2023-04-29T04:25:22.696Z,60.28
2023-04-29T04:27:50.928Z,60.86
2023-04-29T04:30:18.824Z,61.54
2023-04-29T04:32:46.709Z,61.83
2023-04-29T04:35:15.221Z,62.40
2023-04-29T04:37:43.100Z,62.74
2023-04-29T04:40:12.093Z,59.41
2023-04-29T04:42:39.979Z,55.99
2023-04-29T04:45:09.715Z,56.65
2023-04-29T04:47:37.861Z,57.99
2023-04-29T04:50:06.886Z,59.26
2023-04-29T04:52:34.937Z,59.76
2023-04-29T04:55:02.967Z,60.25
2023-04-29T04:57:30.774Z,60.78
2023-04-29T04:59:58.584Z,61.33
2023-04-29T05:02:26.866Z,61.70
2023-04-29T05:04:54.925Z,62.19
2023-04-29T05:07:22.744Z,63.14
2023-04-29T05:09:50.852Z,59.36
2023-04-29T05:12:18.781Z,57.14
2023-04-29T05:14:46.685Z,58.70
2023-04-29T05:17:14.497Z,60.04
2023-04-29T05:19:42.237Z,60.75
2023-04-29T05:22:10.082Z,61.39
2023-04-29T05:24:38.421Z,61.97
2023-04-29T05:27:06.253Z,62.34
2023-04-29T05:29:34.029Z,63.86
2023-04-29T05:32:02.162Z,59.83
2023-04-29T05:34:30.160Z,56.41
2023-04-29T05:36:58.191Z,57.46
2023-04-29T05:39:26.813Z,58.97
2023-04-29T05:41:54.567Z,59.89
2023-04-29T05:44:22.859Z,60.71
2023-04-29T05:46:51.917Z,61.12
2023-04-29T05:49:19.710Z,61.62
2023-04-29T05:51:47.482Z,62.19
2023-04-29T05:54:15.670Z,62.31
2023-04-29T05:56:43.573Z,62.49
2023-04-29T05:59:11.504Z,57.45
2023-04-29T06:01:39.357Z,57.03
2023-04-29T06:04:08.296Z,58.40
2023-04-29T06:06:36.398Z,59.19
2023-04-29T06:09:08.534Z,59.83
2023-04-29T06:11:37.349Z,59.86
2023-04-29T06:14:05.907Z,60.32
2023-04-29T06:16:34.070Z,60.50
2023-04-29T06:19:02.163Z,60.75
2023-04-29T06:21:30.149Z,61.19
2023-04-29T06:23:58.613Z,61.46
2023-04-29T06:26:26.569Z,61.92
2023-04-29T06:28:54.948Z,61.76
2023-04-29T06:31:23.267Z,61.95
2023-04-29T06:33:51.627Z,62.07
2023-04-29T06:36:19.389Z,62.66
2023-04-29T06:38:47.174Z,59.93
2023-04-29T06:41:15.082Z,56.01
2023-04-29T06:43:43.440Z,56.83
2023-04-29T06:46:11.419Z,57.67
2023-04-29T06:48:39.245Z,58.76
2023-04-29T06:51:07.277Z,59.35
2023-04-29T06:53:35.125Z,59.73
2023-04-29T06:56:03.092Z,59.94
2023-04-29T06:58:31.028Z,60.08
2023-04-29T07:00:58.900Z,60.47
2023-04-29T07:03:26.783Z,60.78
2023-04-29T07:05:54.779Z,60.92
2023-04-29T07:08:23.220Z,61.31
2023-04-29T07:10:57.914Z,61.52
2023-04-29T07:13:26.304Z,61.62
2023-04-29T07:15:54.286Z,61.65
2023-04-29T07:18:23.282Z,61.72
2023-04-29T07:20:52.938Z,61.89
2023-04-29T07:23:21.073Z,61.92
2023-04-29T07:25:48.807Z,62.01
2023-04-29T07:28:17.323Z,62.26
2023-04-29T07:30:45.274Z,62.75
2023-04-29T07:33:15.902Z,60.05
2023-04-29T07:35:44.674Z,56.74
2023-04-29T07:38:13.052Z,57.09
2023-04-29T07:40:42.270Z,57.99
2023-04-29T07:43:10.170Z,57.65
2023-04-29T07:45:38.213Z,57.78
2023-04-29T07:48:06.636Z,57.84
2023-04-29T07:50:36.640Z,57.95
2023-04-29T07:53:04.905Z,57.11
2023-04-29T07:55:32.969Z,56.51
2023-04-29T07:58:00.852Z,56.30
2023-04-29T08:00:28.736Z,56.30
2023-04-29T08:02:58.047Z,55.96
2023-04-29T08:05:27.327Z,56.25
2023-04-29T08:07:55.926Z,56.07
2023-04-29T08:10:23.781Z,55.45
2023-04-29T08:12:51.761Z,55.30
2023-04-29T08:15:20.374Z,55.45
2023-04-29T08:17:48.306Z,55.87
2023-04-29T08:20:16.285Z,56.21
2023-04-29T08:22:44.168Z,57.14
2023-04-29T08:25:12.064Z,57.30
2023-04-29T08:27:39.996Z,56.62
2023-04-29T08:30:09.045Z,55.53
2023-04-29T08:32:37.034Z,55.63
2023-04-29T08:35:05.434Z,55.52
2023-04-29T08:37:33.207Z,55.58
2023-04-29T08:40:01.049Z,55.30
2023-04-29T08:42:37.588Z,55.63
2023-04-29T08:45:06.279Z,55.84
2023-04-29T08:47:34.503Z,55.42
2023-04-29T08:50:05.323Z,54.84
2023-04-29T08:52:33.560Z,54.81
2023-04-29T08:55:02.986Z,55.04
2023-04-29T08:57:39.662Z,54.62
2023-04-29T09:00:10.406Z,53.43
2023-04-29T09:02:45.570Z,53.64
2023-04-29T09:05:13.514Z,54.08
2023-04-29T09:07:42.255Z,54.01
2023-04-29T09:10:11.033Z,53.93
2023-04-29T09:12:38.909Z,54.02
2023-04-29T09:15:07.611Z,53.11
2023-04-29T09:17:53.830Z,53.78
2023-04-29T09:20:21.942Z,54.53
2023-04-29T09:22:59.847Z,54.74
2023-04-29T09:25:28.458Z,56.03
2023-04-29T09:27:57.031Z,57.10
2023-04-29T09:30:26.975Z,57.82
2023-04-29T09:33:26.154Z,57.94
2023-04-29T09:35:57.518Z,58.30
2023-04-29T09:38:25.476Z,59.20
2023-04-29T09:40:59.632Z,59.58
2023-04-29T09:43:28.909Z,59.50
2023-04-29T09:45:57.377Z,59.95
2023-04-29T09:48:32.217Z,59.94
2023-04-29T09:51:03.376Z,59.57
2023-04-29T09:53:31.977Z,59.68
2023-04-29T09:56:02.837Z,59.39
2023-04-29T09:58:37.509Z,59.59
2023-04-29T10:01:09.416Z,60.00
2023-04-29T10:03:38.985Z,60.25
2023-04-29T10:06:08.740Z,60.05
2023-04-29T10:08:37.151Z,60.21
2023-04-29T10:11:06.225Z,60.62
2023-04-29T10:13:35.677Z,61.05
2023-04-29T10:16:23.899Z,61.56
2023-04-29T10:18:57.133Z,62.96
2023-04-29T10:21:31.672Z,62.01
2023-04-29T10:24:02.561Z,59.79
2023-04-29T10:26:32.312Z,56.49
2023-04-29T10:29:01.215Z,57.92
2023-04-29T10:31:30.492Z,60.31
2023-04-29T10:33:59.385Z,61.85
2023-04-29T10:36:28.699Z,62.64
2023-04-29T10:39:03.563Z,59.39
2023-04-29T10:41:45.932Z,54.89
2023-04-29T10:44:14.494Z,54.51
2023-04-29T10:46:44.880Z,56.51
2023-04-29T10:49:13.260Z,57.82
2023-04-29T10:51:45.853Z,57.23
2023-04-29T10:54:13.736Z,57.88
2023-04-29T10:56:50.803Z,59.48
2023-04-29T10:59:43.460Z,59.88
2023-04-29T11:02:11.527Z,61.07
2023-04-29T11:05:09.482Z,60.32
2023-04-29T11:07:37.464Z,60.92
2023-04-29T11:10:07.492Z,60.65
2023-04-29T11:12:35.642Z,61.04
2023-04-29T11:15:05.066Z,60.68
2023-04-29T11:17:38.176Z,60.72
2023-04-29T11:20:13.774Z,61.51
2023-04-29T11:22:43.148Z,62.44
2023-04-29T11:25:11.817Z,63.35
2023-04-29T11:27:42.682Z,60.52
2023-04-29T11:30:11.592Z,57.08
2023-04-29T11:32:42.662Z,58.06
2023-04-29T11:35:16.328Z,59.64
2023-04-29T11:37:46.109Z,61.53
2023-04-29T11:40:14.962Z,62.66
2023-04-29T11:42:48.493Z,62.52
2023-04-29T11:45:19.353Z,57.73
2023-04-29T11:47:48.827Z,56.43
2023-04-29T11:50:19.883Z,58.89
2023-04-29T11:52:49.269Z,60.11
2023-04-29T11:55:17.760Z,61.66
2023-04-29T11:57:49.489Z,61.92
2023-04-29T12:00:17.551Z,62.49
2023-04-29T12:02:47.242Z,63.23
2023-04-29T12:05:17.594Z,58.92
2023-04-29T12:07:46.598Z,56.67
2023-04-29T12:10:15.207Z,57.96
2023-04-29T12:12:46.717Z,59.67
2023-04-29T12:15:14.855Z,60.02
2023-04-29T12:17:43.594Z,60.18
2023-04-29T12:20:12.887Z,61.09
2023-04-29T12:22:44.063Z,61.53
2023-04-29T12:25:12.397Z,61.56
2023-04-29T12:27:44.033Z,62.76
2023-04-29T12:30:12.977Z,61.36
2023-04-29T12:32:41.505Z,57.39
2023-04-29T12:35:17.418Z,57.54
2023-04-29T12:37:50.285Z,58.76
2023-04-29T12:40:20.872Z,59.02
2023-04-29T12:42:49.208Z,58.68
2023-04-29T12:45:29.145Z,59.47
2023-04-29T12:47:58.094Z,60.02
2023-04-29T12:50:34.881Z,59.07
2023-04-29T12:53:05.300Z,59.02
2023-04-29T12:55:35.049Z,58.64
2023-04-29T12:58:04.587Z,58.32
2023-04-29T13:00:32.667Z,58.02
2023-04-29T13:03:01.717Z,57.24
2023-04-29T13:05:29.755Z,57.50
2023-04-29T13:07:58.005Z,57.96
2023-04-29T13:10:26.166Z,58.27
2023-04-29T13:12:54.708Z,59.64
2023-04-29T13:15:23.056Z,59.27
2023-04-29T13:17:51.857Z,58.68
2023-04-29T13:20:22.381Z,55.44
2023-04-29T13:22:50.637Z,56.09
2023-04-29T13:25:18.598Z,57.48
2023-04-29T13:27:46.676Z,58.23
2023-04-29T13:30:15.403Z,58.49
2023-04-29T13:32:49.411Z,58.80
2023-04-29T13:35:21.571Z,59.59
2023-04-29T13:37:49.582Z,61.24
2023-04-29T13:40:20.549Z,62.88
2023-04-29T13:42:54.719Z,60.67
2023-04-29T13:45:30.580Z,57.82
2023-04-29T13:48:09.661Z,59.82
2023-04-29T14:03:21.188Z,62.35
2023-04-29T14:05:49.420Z,63.22
2023-04-29T14:08:20.381Z,59.60
2023-04-29T14:10:48.356Z,57.22
2023-04-29T14:13:17.697Z,59.11
2023-04-29T14:15:45.988Z,61.49
2023-04-29T14:18:13.982Z,63.87
2023-04-29T14:20:41.954Z,61.63
2023-04-29T14:23:10.073Z,58.35
2023-04-29T14:25:38.114Z,60.27
2023-04-29T14:28:06.249Z,62.79
2023-04-29T14:30:34.188Z,63.09
2023-04-29T14:33:02.113Z,60.32
2023-04-29T14:35:31.695Z,57.43
2023-04-29T14:38:01.255Z,58.60
2023-04-29T14:40:29.612Z,61.25
2023-04-29T14:43:01.233Z,62.74
2023-04-29T14:45:30.591Z,59.91
2023-04-29T14:47:58.513Z,57.56
2023-04-29T14:50:26.829Z,59.50
2023-04-29T14:52:54.889Z,61.44
2023-04-29T14:55:22.794Z,63.19
2023-04-29T14:57:50.870Z,61.21
2023-04-29T15:00:18.894Z,58.31
2023-04-29T15:02:47.013Z,59.97
2023-04-29T15:05:15.184Z,61.62
2023-04-29T15:07:43.363Z,63.50
2023-04-29T15:10:13.740Z,60.76
2023-04-29T15:12:41.806Z,57.52
2023-04-29T15:15:10.866Z,59.13
2023-04-29T15:17:38.826Z,61.71
2023-04-29T15:20:07.909Z,63.42
2023-04-29T15:22:35.990Z,61.13
2023-04-29T15:25:04.626Z,57.86
2023-04-29T15:27:34.784Z,58.43
2023-04-29T15:30:04.043Z,60.74
2023-04-29T15:32:32.683Z,62.99
2023-04-29T15:35:02.861Z,62.63
2023-04-29T15:37:30.965Z,59.31
2023-04-29T15:40:00.294Z,57.80
2023-04-29T15:42:28.501Z,59.65
2023-04-29T15:44:56.630Z,61.87
2023-04-29T15:47:24.769Z,63.21
2023-04-29T15:49:53.068Z,60.57
2023-04-29T15:52:21.171Z,57.37
2023-04-29T15:54:49.066Z,59.74
2023-04-29T15:57:16.916Z,61.99
2023-04-29T15:59:44.936Z,63.24
2023-04-29T16:02:13.972Z,60.59
2023-04-29T16:04:41.995Z,57.77
2023-04-29T16:07:09.913Z,59.33
2023-04-29T16:09:37.858Z,61.72
2023-04-29T16:12:05.931Z,63.15
2023-04-29T16:14:34.003Z,60.62
2023-04-29T16:17:02.136Z,58.19
2023-04-29T16:19:29.970Z,59.91
2023-04-29T16:22:00.935Z,61.88
2023-04-29T16:24:28.867Z,63.05
2023-04-29T16:26:57.365Z,60.58
2023-04-29T16:29:25.805Z,58.36
2023-04-29T16:31:54.005Z,60.01
2023-04-29T16:34:22.016Z,61.86
2023-04-29T16:36:50.075Z,63.60
2023-04-29T16:39:18.108Z,60.60
2023-04-29T16:41:46.120Z,58.96
2023-04-29T16:44:14.619Z,60.34
2023-04-29T16:46:42.650Z,61.88
2023-04-29T16:49:10.754Z,63.10
2023-04-29T16:51:38.724Z,61.50
2023-04-29T16:54:08.092Z,58.48
2023-04-29T16:56:36.157Z,59.82
2023-04-29T16:59:04.051Z,62.30
2023-04-29T17:01:32.502Z,63.57
2023-04-29T17:04:01.416Z,60.46
2023-04-29T17:06:30.086Z,57.51
2023-04-29T17:08:58.355Z,58.49
2023-04-29T17:11:26.370Z,60.99
2023-04-29T17:13:54.247Z,62.91
2023-04-29T17:16:22.172Z,60.92
2023-04-29T17:18:50.211Z,57.35
2023-04-29T17:21:18.065Z,58.74
2023-04-29T17:23:48.045Z,61.23
2023-04-29T17:26:15.845Z,63.30
2023-04-29T17:28:44.872Z,60.90
2023-04-29T17:31:12.902Z,57.32
2023-04-29T17:33:54.869Z,58.50
2023-04-29T17:36:22.923Z,61.14
2023-04-29T17:38:50.771Z,63.47
2023-04-29T17:41:18.586Z,62.23
2023-04-29T17:43:47.195Z,58.51
2023-04-29T17:46:15.249Z,58.53
2023-04-29T17:48:43.314Z,60.81
2023-04-29T17:51:11.160Z,63.34
2023-04-29T17:53:39.075Z,61.30
2023-04-29T17:56:07.452Z,57.97
2023-04-29T17:58:35.643Z,58.39
2023-04-29T18:01:06.007Z,60.44
2023-04-29T18:03:33.999Z,61.94
2023-04-29T18:06:02.218Z,63.86
2023-04-29T18:08:30.248Z,61.25
2023-04-29T18:10:58.047Z,58.12
2023-04-29T18:13:27.199Z,59.40
2023-04-29T18:15:55.701Z,62.03
2023-04-29T18:18:23.525Z,63.43
2023-04-29T18:20:52.023Z,60.63
2023-04-29T18:23:19.873Z,57.44
2023-04-29T18:25:47.687Z,59.14
2023-04-29T18:28:24.653Z,61.87
2023-04-29T18:30:53.336Z,63.19
2023-04-29T18:33:21.484Z,60.80
2023-04-29T18:35:49.615Z,58.38
2023-04-29T18:38:17.603Z,59.76
2023-04-29T18:40:45.529Z,61.51
2023-04-29T18:43:17.202Z,64.56
2023-04-29T18:45:45.961Z,62.70
2023-04-29T18:48:15.049Z,59.13
2023-04-29T18:50:43.112Z,58.47
2023-04-29T18:53:10.982Z,61.71
2023-04-29T18:55:38.864Z,63.51
2023-04-29T18:58:06.758Z,61.19
2023-04-29T19:00:34.698Z,58.18
2023-04-29T19:03:02.609Z,59.83
2023-04-29T19:05:31.089Z,62.61
2023-04-29T19:07:59.192Z,62.74
2023-04-29T19:10:26.952Z,60.29
2023-04-29T19:12:55.472Z,57.41
2023-04-29T19:15:25.242Z,59.41
2023-04-29T19:17:53.194Z,61.51
2023-04-29T19:20:21.289Z,63.66
2023-04-29T19:22:49.117Z,61.57
2023-04-29T19:25:17.086Z,58.48
2023-04-29T19:27:45.238Z,58.52
2023-04-29T19:30:13.707Z,61.58
2023-04-29T19:32:41.912Z,63.66
2023-04-29T19:35:10.403Z,60.43
2023-04-29T19:37:38.449Z,58.43
2023-04-29T19:40:09.974Z,60.33
2023-04-29T19:42:39.290Z,63.03
2023-04-29T19:45:08.385Z,61.64
2023-04-29T19:47:36.785Z,58.25
2023-04-29T19:50:05.333Z,58.32
2023-04-29T19:52:33.503Z,60.78
2023-04-29T19:55:01.395Z,62.66
2023-04-29T19:57:29.173Z,61.11
2023-04-29T19:59:57.331Z,58.71
2023-04-29T20:02:26.116Z,60.22
2023-04-29T20:04:54.405Z,62.80
2023-04-29T20:07:22.264Z,63.11
2023-04-29T20:09:50.108Z,60.53
2023-04-29T20:12:20.565Z,57.77
2023-04-29T20:14:48.673Z,59.09
2023-04-29T20:17:17.702Z,61.13
2023-04-29T20:19:45.988Z,62.68
2023-04-29T20:22:13.960Z,60.78
2023-04-29T20:24:41.738Z,57.86
2023-04-29T20:27:11.048Z,58.47
2023-04-29T20:29:38.977Z,60.90
2023-04-29T20:32:07.094Z,62.83
2023-04-29T20:34:36.418Z,61.71
2023-04-29T20:37:04.221Z,58.32
2023-04-29T20:39:32.125Z,59.16
2023-04-29T20:42:03.187Z,60.97
2023-04-29T20:44:31.462Z,62.21
2023-04-29T20:46:59.475Z,62.43
2023-04-29T20:49:27.271Z,59.34
2023-04-29T20:51:56.163Z,57.27
2023-04-29T20:54:25.963Z,59.07
2023-04-29T20:56:53.793Z,60.69
2023-04-29T20:59:21.716Z,62.18
2023-04-29T21:01:49.588Z,62.69
2023-04-29T21:04:18.161Z,59.78
2023-04-29T21:06:46.134Z,57.27
2023-04-29T21:09:13.995Z,58.54
2023-04-29T21:11:41.871Z,60.41
2023-04-29T21:14:09.736Z,61.54
2023-04-29T21:16:37.810Z,62.24
2023-04-29T21:19:05.803Z,63.93
2023-04-29T21:21:33.693Z,61.24
2023-04-29T21:24:01.776Z,58.00
2023-04-29T21:26:29.648Z,58.36
2023-04-29T21:28:57.523Z,59.92
2023-04-29T21:31:25.531Z,60.97
2023-04-29T21:33:53.450Z,61.94
2023-04-29T21:36:21.323Z,62.90
2023-04-29T21:38:49.537Z,60.75
2023-04-29T21:41:32.089Z,57.84
2023-04-29T21:44:00.895Z,57.86
2023-04-29T21:46:29.561Z,59.59
2023-04-29T21:49:01.098Z,61.01
2023-04-29T21:51:29.885Z,62.61
2023-04-29T21:53:58.023Z,62.49
2023-04-29T21:56:26.111Z,58.92
2023-04-29T21:58:53.996Z,56.96
2023-04-29T22:01:39.933Z,58.53
2023-04-29T22:04:07.949Z,60.16
2023-04-29T22:06:36.364Z,61.46
2023-04-29T22:09:04.723Z,63.17
2023-04-29T22:11:32.642Z,61.24
2023-04-29T22:14:00.524Z,57.33
2023-04-29T22:16:28.537Z,57.88
2023-04-29T22:18:57.604Z,59.62
2023-04-29T22:21:25.565Z,61.24
2023-04-29T22:23:54.381Z,62.85
2023-04-29T22:26:25.532Z,62.03
2023-04-29T22:28:53.496Z,58.19
2023-04-29T22:31:21.607Z,57.70
2023-04-29T22:33:49.664Z,59.56
2023-04-29T22:36:17.597Z,61.20
2023-04-29T22:38:45.443Z,62.33
2023-04-29T22:41:14.207Z,63.75
2023-04-29T22:43:41.976Z,60.86
2023-04-29T22:46:09.825Z,57.11
2023-04-29T22:48:37.869Z,58.18
2023-04-29T22:51:05.928Z,59.78
2023-04-29T22:53:33.801Z,60.97
2023-04-29T22:56:02.208Z,62.14
2023-04-29T22:58:30.180Z,63.49
2023-04-29T23:00:58.146Z,60.63
2023-04-29T23:03:27.502Z,57.02
2023-04-29T23:06:00.380Z,57.85
2023-04-29T23:08:28.472Z,59.41
2023-04-29T23:10:56.342Z,60.87
2023-04-29T23:13:24.257Z,62.07
2023-04-29T23:15:55.614Z,63.38
2023-04-29T23:18:23.591Z,60.88
2023-04-29T23:20:51.686Z,57.03
2023-04-29T23:23:20.101Z,57.85
2023-04-29T23:25:48.705Z,59.66
2023-04-29T23:28:16.618Z,60.98
2023-04-29T23:30:47.899Z,62.14
2023-04-29T23:33:15.876Z,63.25
2023-04-29T23:35:51.513Z,60.33
2023-04-29T23:38:19.832Z,56.56
2023-04-29T23:40:47.794Z,57.43
2023-04-29T23:43:15.799Z,59.62
2023-04-29T23:45:45.853Z,60.99
2023-04-29T23:48:16.101Z,62.28
2023-04-29T23:50:44.005Z,63.45
2023-04-29T23:53:11.775Z,60.34
2023-04-29T23:55:39.656Z,56.40
2023-04-29T23:58:07.809Z,57.52
